Time;durP1;ratioP1;P1;durP2;ratioP2;P2;SDS_P1;SDS_P2;PMS_P1;PMS_P2;Temp;Humidity;BMP_temperature;BMP_pressure;BME280_temperature;BME280_humidity;BME280_pressure;Samples;Min_cycle;Max_cycle;Signal;HPM_P1;HPM_P2
2021/09/26 00:00:45;;;;;;;8.650002;7.75;;;;;;;16.03;77.25098;95399.91;;;;
2021/09/26 00:01:46;;;;;;;8.650002;7.75;;;;;;;16.03;77.25098;95399.91;;;;
2021/09/26 00:02:46;;;;;;;8.650002;7.75;;;;;;;16.03;77.25098;95399.91;;;;
2021/09/26 00:03:47;;;;;;;8.650002;7.75;;;;;;;16.03;77.25098;95399.91;;;;
2021/09/26 00:04:47;;;;;;;8.650002;7.75;;;;;;;16.03;77.25098;95399.91;;;;
2021/09/26 00:05:48;;;;;;;8.650002;7.75;;;;;;;16.03;77.25098;95399.91;;;;
2021/09/26 00:06:48;;;;;;;8.650002;7.75;;;;;;;16.03;77.25098;95399.91;;;;
2021/09/26 00:07:48;;;;;;;6.05;5.25;;;;;;;16.17;77.52246;95400.62;;;;
2021/09/26 00:08:49;;;;;;;6.05;5.25;;;;;;;16.17;77.52246;95400.62;;;;
2021/09/26 00:09:49;;;;;;;6.05;5.25;;;;;;;16.17;77.52246;95400.62;;;;
2021/09/26 00:10:50;;;;;;;6.05;5.25;;;;;;;16.17;77.52246;95400.62;;;;
2021/09/26 00:11:50;;;;;;;6.05;5.25;;;;;;;16.17;77.52246;95400.62;;;;
2021/09/26 00:12:51;;;;;;;6.05;5.25;;;;;;;16.17;77.52246;95400.62;;;;
2021/09/26 00:13:52;;;;;;;6.05;5.25;;;;;;;16.17;77.52246;95400.62;;;;
2021/09/26 00:14:54;;;;;;;6.05;5.25;;;;;;;16.17;77.52246;95400.62;;;;
2021/09/26 00:15:55;;;;;;;6.05;5.25;;;;;;;16.17;77.52246;95400.62;;;;
2021/09/26 00:16:58;;;;;;;6.05;5.25;;;;;;;16.17;77.52246;95400.62;;;;
2021/09/26 00:17:59;;;;;;;5.849999;5.25;;;;;;;16.21;77.49707;95415.36;;;;
2021/09/26 00:18:59;;;;;;;5.849999;5.25;;;;;;;16.21;77.49707;95415.36;;;;
2021/09/26 00:20:00;;;;;;;5.849999;5.25;;;;;;;16.21;77.49707;95415.36;;;;
2021/09/26 00:21:00;;;;;;;5.849999;5.25;;;;;;;16.21;77.49707;95415.36;;;;
2021/09/26 00:22:01;;;;;;;5.849999;5.25;;;;;;;16.21;77.49707;95415.36;;;;
2021/09/26 00:23:02;;;;;;;5.849999;5.25;;;;;;;16.21;77.49707;95415.36;;;;
2021/09/26 00:24:03;;;;;;;5.849999;5.25;;;;;;;16.21;77.49707;95415.36;;;;
2021/09/26 00:25:04;;;;;;;5.849999;5.25;;;;;;;16.21;77.49707;95415.36;;;;
2021/09/26 00:26:07;;;;;;;5.849999;5.25;;;;;;;16.21;77.49707;95415.36;;;;
2021/09/26 00:27:10;;;;;;;5.849999;5.25;;;;;;;16.21;77.49707;95415.36;;;;
2021/09/26 00:28:10;;;;;;;5.849999;5.25;;;;;;;16.21;77.49707;95415.36;;;;
2021/09/26 00:29:11;;;;;;;5.900001;5.3;;;;;;;16.23;77.73828;95405.97;;;;
2021/09/26 00:30:14;;;;;;;5.900001;5.3;;;;;;;16.23;77.73828;95405.97;;;;
2021/09/26 00:31:15;;;;;;;5.900001;5.3;;;;;;;16.23;77.73828;95405.97;;;;
2021/09/26 00:32:16;;;;;;;5.900001;5.3;;;;;;;16.23;77.73828;95405.97;;;;
2021/09/26 00:33:16;;;;;;;5.900001;5.3;;;;;;;16.23;77.73828;95405.97;;;;
2021/09/26 00:34:17;;;;;;;5.900001;5.3;;;;;;;16.23;77.73828;95405.97;;;;
2021/09/26 00:35:19;;;;;;;5.900001;5.3;;;;;;;16.23;77.73828;95405.97;;;;
2021/09/26 00:36:19;;;;;;;5.900001;5.3;;;;;;;16.23;77.73828;95405.97;;;;
2021/09/26 00:37:20;;;;;;;5.900001;5.3;;;;;;;16.23;77.73828;95405.97;;;;
2021/09/26 00:38:21;;;;;;;5.900001;5.3;;;;;;;16.23;77.73828;95405.97;;;;
2021/09/26 00:39:22;;;;;;;6.249999;5.65;;;;;;;16.24;77.91309;95405.84;;;;
2021/09/26 00:40:23;;;;;;;6.249999;5.65;;;;;;;16.24;77.91309;95405.84;;;;
2021/09/26 00:41:23;;;;;;;6.249999;5.65;;;;;;;16.24;77.91309;95405.84;;;;
2021/09/26 00:42:24;;;;;;;6.249999;5.65;;;;;;;16.24;77.91309;95405.84;;;;
2021/09/26 00:43:25;;;;;;;6.249999;5.65;;;;;;;16.24;77.91309;95405.84;;;;
2021/09/26 00:44:25;;;;;;;6.249999;5.65;;;;;;;16.24;77.91309;95405.84;;;;
2021/09/26 00:45:26;;;;;;;6.249999;5.65;;;;;;;16.24;77.91309;95405.84;;;;
2021/09/26 00:46:27;;;;;;;6.249999;5.65;;;;;;;16.24;77.91309;95405.84;;;;
2021/09/26 00:47:27;;;;;;;6.249999;5.65;;;;;;;16.24;77.91309;95405.84;;;;
2021/09/26 00:48:28;;;;;;;6.249999;5.65;;;;;;;16.24;77.91309;95405.84;;;;
2021/09/26 00:49:28;;;;;;;6.249999;5.65;;;;;;;16.24;77.91309;95405.84;;;;
2021/09/26 00:50:29;;;;;;;12.4;5.749999;;;;;;;16.22;78.25684;95397.12;;;;
2021/09/26 00:51:29;;;;;;;12.4;5.749999;;;;;;;16.22;78.25684;95397.12;;;;
2021/09/26 00:52:30;;;;;;;12.4;5.749999;;;;;;;16.22;78.25684;95397.12;;;;
2021/09/26 00:53:31;;;;;;;12.4;5.749999;;;;;;;16.22;78.25684;95397.12;;;;
2021/09/26 00:54:31;;;;;;;12.4;5.749999;;;;;;;16.22;78.25684;95397.12;;;;
2021/09/26 00:55:32;;;;;;;12.4;5.749999;;;;;;;16.22;78.25684;95397.12;;;;
2021/09/26 00:56:33;;;;;;;12.4;5.749999;;;;;;;16.22;78.25684;95397.12;;;;
2021/09/26 00:57:34;;;;;;;12.4;5.749999;;;;;;;16.22;78.25684;95397.12;;;;
2021/09/26 00:58:35;;;;;;;12.4;5.749999;;;;;;;16.22;78.25684;95397.12;;;;
2021/09/26 00:59:36;;;;;;;12.4;5.749999;;;;;;;16.22;78.25684;95397.12;;;;
2021/09/26 01:00:36;;;;;;;6.55;5.55;;;;;;;16.24;78.46582;95393.58;;;;
2021/09/26 01:01:37;;;;;;;6.55;5.55;;;;;;;16.24;78.46582;95393.58;;;;
2021/09/26 01:02:37;;;;;;;6.55;5.55;;;;;;;16.24;78.46582;95393.58;;;;
2021/09/26 01:03:38;;;;;;;6.55;5.55;;;;;;;16.24;78.46582;95393.58;;;;
2021/09/26 01:04:38;;;;;;;6.55;5.55;;;;;;;16.24;78.46582;95393.58;;;;
2021/09/26 01:05:39;;;;;;;6.55;5.55;;;;;;;16.24;78.46582;95393.58;;;;
2021/09/26 01:06:40;;;;;;;6.55;5.55;;;;;;;16.24;78.46582;95393.58;;;;
2021/09/26 01:07:47;;;;;;;6.55;5.55;;;;;;;16.24;78.46582;95393.58;;;;
2021/09/26 01:09:01;;;;;;;6.55;5.55;;;;;;;16.24;78.46582;95393.58;;;;
2021/09/26 01:10:07;;;;;;;6.55;5.55;;;;;;;16.24;78.46582;95393.58;;;;
2021/09/26 01:11:12;;;;;;;7.95;5.699999;;;;;;;16.21;78.75293;95395.46;;;;
2021/09/26 01:12:20;;;;;;;7.95;5.699999;;;;;;;16.21;78.75293;95395.46;;;;
2021/09/26 01:13:37;;;;;;;7.95;5.699999;;;;;;;16.21;78.75293;95395.46;;;;
2021/09/26 01:14:50;;;;;;;7.95;5.699999;;;;;;;16.21;78.75293;95395.46;;;;
2021/09/26 01:15:56;;;;;;;7.95;5.699999;;;;;;;16.21;78.75293;95395.46;;;;
2021/09/26 01:17:08;;;;;;;7.95;5.699999;;;;;;;16.21;78.75293;95395.46;;;;
2021/09/26 01:18:12;;;;;;;7.95;5.699999;;;;;;;16.21;78.75293;95395.46;;;;
2021/09/26 01:19:22;;;;;;;7.95;5.699999;;;;;;;16.21;78.75293;95395.46;;;;
2021/09/26 01:20:40;;;;;;;7.95;5.699999;;;;;;;16.21;78.75293;95395.46;;;;
2021/09/26 01:21:47;;;;;;;7.95;5.699999;;;;;;;16.21;78.75293;95395.46;;;;
2021/09/26 01:22:53;;;;;;;6.149999;5.649999;;;;;;;16.21;79.2832;95395.46;;;;
2021/09/26 01:24:17;;;;;;;6.149999;5.649999;;;;;;;16.21;79.2832;95395.46;;;;
2021/09/26 01:25:35;;;;;;;6.149999;5.649999;;;;;;;16.21;79.2832;95395.46;;;;
2021/09/26 01:26:54;;;;;;;6.149999;5.649999;;;;;;;16.21;79.2832;95395.46;;;;
2021/09/26 01:28:09;;;;;;;6.149999;5.649999;;;;;;;16.21;79.2832;95395.46;;;;
2021/09/26 01:29:32;;;;;;;6.149999;5.649999;;;;;;;16.21;79.2832;95395.46;;;;
2021/09/26 01:30:57;;;;;;;6.149999;5.649999;;;;;;;16.21;79.2832;95395.46;;;;
2021/09/26 01:32:00;;;;;;;6.149999;5.649999;;;;;;;16.21;79.2832;95395.46;;;;
2021/09/26 01:33:05;;;;;;;7.599999;6.2;;;;;;;16.22;79.62012;95404.75;;;;
2021/09/26 01:34:16;;;;;;;7.599999;6.2;;;;;;;16.22;79.62012;95404.75;;;;
2021/09/26 01:35:21;;;;;;;7.599999;6.2;;;;;;;16.22;79.62012;95404.75;;;;
2021/09/26 01:36:24;;;;;;;7.599999;6.2;;;;;;;16.22;79.62012;95404.75;;;;
2021/09/26 01:37:30;;;;;;;7.599999;6.2;;;;;;;16.22;79.62012;95404.75;;;;
2021/09/26 01:38:37;;;;;;;7.599999;6.2;;;;;;;16.22;79.62012;95404.75;;;;
2021/09/26 01:39:50;;;;;;;7.599999;6.2;;;;;;;16.22;79.62012;95404.75;;;;
2021/09/26 01:40:57;;;;;;;7.599999;6.2;;;;;;;16.22;79.62012;95404.75;;;;
2021/09/26 01:42:02;;;;;;;7.599999;6.2;;;;;;;16.22;79.62012;95404.75;;;;
2021/09/26 01:43:08;;;;;;;7.599999;6.2;;;;;;;16.22;79.62012;95404.75;;;;
2021/09/26 01:44:11;;;;;;;6.9;6;;;;;;;16.2;80.07129;95411.96;;;;
2021/09/26 01:45:15;;;;;;;6.9;6;;;;;;;16.2;80.07129;95411.96;;;;
2021/09/26 01:46:22;;;;;;;6.9;6;;;;;;;16.2;80.07129;95411.96;;;;
2021/09/26 01:47:28;;;;;;;6.9;6;;;;;;;16.2;80.07129;95411.96;;;;
2021/09/26 01:48:32;;;;;;;6.9;6;;;;;;;16.2;80.07129;95411.96;;;;
2021/09/26 01:49:40;;;;;;;6.9;6;;;;;;;16.2;80.07129;95411.96;;;;
2021/09/26 01:50:46;;;;;;;6.9;6;;;;;;;16.2;80.07129;95411.96;;;;
2021/09/26 01:51:50;;;;;;;6.9;6;;;;;;;16.2;80.07129;95411.96;;;;
2021/09/26 01:52:52;;;;;;;6.9;6;;;;;;;16.2;80.07129;95411.96;;;;
2021/09/26 01:53:56;;;;;;;7.45;6.5;;;;;;;16.22;80.43164;95411.57;;;;
2021/09/26 01:54:57;;;;;;;7.45;6.5;;;;;;;16.22;80.43164;95411.57;;;;
2021/09/26 01:55:59;;;;;;;7.45;6.5;;;;;;;16.22;80.43164;95411.57;;;;
2021/09/26 01:57:00;;;;;;;7.45;6.5;;;;;;;16.22;80.43164;95411.57;;;;
2021/09/26 01:58:01;;;;;;;7.45;6.5;;;;;;;16.22;80.43164;95411.57;;;;
2021/09/26 01:59:03;;;;;;;7.45;6.5;;;;;;;16.22;80.43164;95411.57;;;;
2021/09/26 02:00:06;;;;;;;7.45;6.5;;;;;;;16.22;80.43164;95411.57;;;;
2021/09/26 02:01:09;;;;;;;7.45;6.5;;;;;;;16.22;80.43164;95411.57;;;;
2021/09/26 02:02:12;;;;;;;7.45;6.5;;;;;;;16.22;80.43164;95411.57;;;;
2021/09/26 02:03:13;;;;;;;7.45;6.5;;;;;;;16.22;80.43164;95411.57;;;;
2021/09/26 02:04:17;;;;;;;7.45;6.5;;;;;;;16.22;80.43164;95411.57;;;;
2021/09/26 02:05:19;;;;;;;9.200001;6.5;;;;;;;16.15;80.82031;95424.63;;;;
2021/09/26 02:06:21;;;;;;;9.200001;6.5;;;;;;;16.15;80.82031;95424.63;;;;
2021/09/26 02:07:22;;;;;;;9.200001;6.5;;;;;;;16.15;80.82031;95424.63;;;;
2021/09/26 02:08:23;;;;;;;9.200001;6.5;;;;;;;16.15;80.82031;95424.63;;;;
2021/09/26 02:09:25;;;;;;;9.200001;6.5;;;;;;;16.15;80.82031;95424.63;;;;
2021/09/26 02:10:28;;;;;;;9.200001;6.5;;;;;;;16.15;80.82031;95424.63;;;;
2021/09/26 02:11:28;;;;;;;9.200001;6.5;;;;;;;16.15;80.82031;95424.63;;;;
2021/09/26 02:12:29;;;;;;;9.200001;6.5;;;;;;;16.15;80.82031;95424.63;;;;
2021/09/26 02:13:32;;;;;;;9.200001;6.5;;;;;;;16.15;80.82031;95424.63;;;;
2021/09/26 02:14:33;;;;;;;9.200001;6.5;;;;;;;16.15;80.82031;95424.63;;;;
2021/09/26 02:15:34;;;;;;;7.35;6.600001;;;;;;;16.06;81.31152;95414.5;;;;
2021/09/26 02:16:37;;;;;;;7.35;6.600001;;;;;;;16.06;81.31152;95414.5;;;;
2021/09/26 02:17:38;;;;;;;7.35;6.600001;;;;;;;16.06;81.31152;95414.5;;;;
2021/09/26 02:18:42;;;;;;;7.35;6.600001;;;;;;;16.06;81.31152;95414.5;;;;
2021/09/26 02:19:45;;;;;;;7.35;6.600001;;;;;;;16.06;81.31152;95414.5;;;;
2021/09/26 02:20:47;;;;;;;7.35;6.600001;;;;;;;16.06;81.31152;95414.5;;;;
2021/09/26 02:21:49;;;;;;;7.35;6.600001;;;;;;;16.06;81.31152;95414.5;;;;
2021/09/26 02:22:50;;;;;;;7.35;6.600001;;;;;;;16.06;81.31152;95414.5;;;;
2021/09/26 02:23:53;;;;;;;7.35;6.600001;;;;;;;16.06;81.31152;95414.5;;;;
2021/09/26 02:24:55;;;;;;;7.35;6.600001;;;;;;;16.06;81.31152;95414.5;;;;
2021/09/26 02:25:58;;;;;;;6.849999;6.149999;;;;;;;15.89;81.79785;95408.42;;;;
2021/09/26 02:27:01;;;;;;;6.849999;6.149999;;;;;;;15.89;81.79785;95408.42;;;;
2021/09/26 02:28:02;;;;;;;6.849999;6.149999;;;;;;;15.89;81.79785;95408.42;;;;
2021/09/26 02:29:03;;;;;;;6.849999;6.149999;;;;;;;15.89;81.79785;95408.42;;;;
2021/09/26 02:30:04;;;;;;;6.849999;6.149999;;;;;;;15.89;81.79785;95408.42;;;;
2021/09/26 02:31:07;;;;;;;6.849999;6.149999;;;;;;;15.89;81.79785;95408.42;;;;
2021/09/26 02:32:08;;;;;;;6.849999;6.149999;;;;;;;15.89;81.79785;95408.42;;;;
2021/09/26 02:33:09;;;;;;;6.849999;6.149999;;;;;;;15.89;81.79785;95408.42;;;;
2021/09/26 02:34:09;;;;;;;6.849999;6.149999;;;;;;;15.89;81.79785;95408.42;;;;
2021/09/26 02:35:10;;;;;;;6.849999;6.149999;;;;;;;15.89;81.79785;95408.42;;;;
2021/09/26 02:36:11;;;;;;;6.849999;6.149999;;;;;;;15.89;81.79785;95408.42;;;;
2021/09/26 02:37:14;;;;;;;9.449999;6.650001;;;;;;;15.76;82.34766;95400.76;;;;
2021/09/26 02:38:15;;;;;;;9.449999;6.650001;;;;;;;15.76;82.34766;95400.76;;;;
2021/09/26 02:39:16;;;;;;;9.449999;6.650001;;;;;;;15.76;82.34766;95400.76;;;;
2021/09/26 02:40:18;;;;;;;9.449999;6.650001;;;;;;;15.76;82.34766;95400.76;;;;
2021/09/26 02:41:20;;;;;;;9.449999;6.650001;;;;;;;15.76;82.34766;95400.76;;;;
2021/09/26 02:42:31;;;;;;;9.449999;6.650001;;;;;;;15.76;82.34766;95400.76;;;;
2021/09/26 02:43:38;;;;;;;9.449999;6.650001;;;;;;;15.76;82.34766;95400.76;;;;
2021/09/26 02:44:43;;;;;;;9.449999;6.650001;;;;;;;15.76;82.34766;95400.76;;;;
2021/09/26 02:45:50;;;;;;;9.449999;6.650001;;;;;;;15.76;82.34766;95400.76;;;;
2021/09/26 02:46:58;;;;;;;9.449999;6.650001;;;;;;;15.76;82.34766;95400.76;;;;
2021/09/26 02:48:05;;;;;;;7.199999;6.45;;;;;;;15.56;82.89355;95395.47;;;;
2021/09/26 02:49:10;;;;;;;7.199999;6.45;;;;;;;15.56;82.89355;95395.47;;;;
2021/09/26 02:50:11;;;;;;;7.199999;6.45;;;;;;;15.56;82.89355;95395.47;;;;
2021/09/26 02:51:12;;;;;;;7.199999;6.45;;;;;;;15.56;82.89355;95395.47;;;;
2021/09/26 02:52:13;;;;;;;7.199999;6.45;;;;;;;15.56;82.89355;95395.47;;;;
2021/09/26 02:53:14;;;;;;;7.199999;6.45;;;;;;;15.56;82.89355;95395.47;;;;
2021/09/26 02:54:15;;;;;;;7.199999;6.45;;;;;;;15.56;82.89355;95395.47;;;;
2021/09/26 02:55:17;;;;;;;7.199999;6.45;;;;;;;15.56;82.89355;95395.47;;;;
2021/09/26 02:56:18;;;;;;;7.199999;6.45;;;;;;;15.56;82.89355;95395.47;;;;
2021/09/26 02:57:19;;;;;;;7.199999;6.45;;;;;;;15.56;82.89355;95395.47;;;;
2021/09/26 02:58:20;;;;;;;8.500001;6.7;;;;;;;15.44;83.56348;95392.14;;;;
2021/09/26 02:59:21;;;;;;;8.500001;6.7;;;;;;;15.44;83.56348;95392.14;;;;
2021/09/26 03:00:21;;;;;;;8.500001;6.7;;;;;;;15.44;83.56348;95392.14;;;;
2021/09/26 03:01:30;;;;;;;8.500001;6.7;;;;;;;15.44;83.56348;95392.14;;;;
2021/09/26 03:02:31;;;;;;;8.500001;6.7;;;;;;;15.44;83.56348;95392.14;;;;
2021/09/26 03:03:33;;;;;;;8.500001;6.7;;;;;;;15.44;83.56348;95392.14;;;;
2021/09/26 03:04:33;;;;;;;8.500001;6.7;;;;;;;15.44;83.56348;95392.14;;;;
2021/09/26 03:05:41;;;;;;;8.500001;6.7;;;;;;;15.44;83.56348;95392.14;;;;
2021/09/26 03:06:43;;;;;;;8.500001;6.7;;;;;;;15.44;83.56348;95392.14;;;;
2021/09/26 03:07:47;;;;;;;8.500001;6.7;;;;;;;15.44;83.56348;95392.14;;;;
2021/09/26 03:08:47;;;;;;;8.700001;6.649999;;;;;;;15.41;84.05176;95391.85;;;;
2021/09/26 03:09:48;;;;;;;8.700001;6.649999;;;;;;;15.41;84.05176;95391.85;;;;
2021/09/26 03:10:48;;;;;;;8.700001;6.649999;;;;;;;15.41;84.05176;95391.85;;;;
2021/09/26 03:11:52;;;;;;;8.700001;6.649999;;;;;;;15.41;84.05176;95391.85;;;;
2021/09/26 03:12:53;;;;;;;8.700001;6.649999;;;;;;;15.41;84.05176;95391.85;;;;
2021/09/26 03:13:53;;;;;;;8.700001;6.649999;;;;;;;15.41;84.05176;95391.85;;;;
2021/09/26 03:14:54;;;;;;;8.700001;6.649999;;;;;;;15.41;84.05176;95391.85;;;;
2021/09/26 03:15:54;;;;;;;8.700001;6.649999;;;;;;;15.41;84.05176;95391.85;;;;
2021/09/26 03:16:55;;;;;;;8.700001;6.649999;;;;;;;15.41;84.05176;95391.85;;;;
2021/09/26 03:17:56;;;;;;;8.700001;6.649999;;;;;;;15.41;84.05176;95391.85;;;;
2021/09/26 03:18:57;;;;;;;8.700001;6.649999;;;;;;;15.41;84.05176;95391.85;;;;
2021/09/26 03:19:58;;;;;;;8.25;6.05;;;;;;;15.4;84.48242;95395.1;;;;
2021/09/26 03:20:59;;;;;;;8.25;6.05;;;;;;;15.4;84.48242;95395.1;;;;
2021/09/26 03:21:59;;;;;;;8.25;6.05;;;;;;;15.4;84.48242;95395.1;;;;
2021/09/26 03:23:00;;;;;;;8.25;6.05;;;;;;;15.4;84.48242;95395.1;;;;
2021/09/26 03:24:01;;;;;;;8.25;6.05;;;;;;;15.4;84.48242;95395.1;;;;
2021/09/26 03:25:01;;;;;;;8.25;6.05;;;;;;;15.4;84.48242;95395.1;;;;
2021/09/26 03:26:02;;;;;;;8.25;6.05;;;;;;;15.4;84.48242;95395.1;;;;
2021/09/26 03:27:08;;;;;;;8.25;6.05;;;;;;;15.4;84.48242;95395.1;;;;
2021/09/26 03:28:09;;;;;;;8.25;6.05;;;;;;;15.4;84.48242;95395.1;;;;
2021/09/26 03:29:10;;;;;;;8.25;6.05;;;;;;;15.4;84.48242;95395.1;;;;
2021/09/26 03:30:10;;;;;;;10.85;6.1;;;;;;;15.37;84.82129;95383.36;;;;
2021/09/26 03:31:12;;;;;;;10.85;6.1;;;;;;;15.37;84.82129;95383.36;;;;
2021/09/26 03:32:12;;;;;;;10.85;6.1;;;;;;;15.37;84.82129;95383.36;;;;
2021/09/26 03:33:13;;;;;;;10.85;6.1;;;;;;;15.37;84.82129;95383.36;;;;
2021/09/26 03:34:13;;;;;;;10.85;6.1;;;;;;;15.37;84.82129;95383.36;;;;
2021/09/26 03:35:14;;;;;;;10.85;6.1;;;;;;;15.37;84.82129;95383.36;;;;
2021/09/26 03:36:15;;;;;;;10.85;6.1;;;;;;;15.37;84.82129;95383.36;;;;
2021/09/26 03:37:16;;;;;;;10.85;6.1;;;;;;;15.37;84.82129;95383.36;;;;
2021/09/26 03:38:16;;;;;;;10.85;6.1;;;;;;;15.37;84.82129;95383.36;;;;
2021/09/26 03:39:17;;;;;;;10.85;6.1;;;;;;;15.37;84.82129;95383.36;;;;
2021/09/26 03:40:17;;;;;;;10.85;6.1;;;;;;;15.37;84.82129;95383.36;;;;
2021/09/26 03:41:18;;;;;;;8.199999;6.35;;;;;;;15.33;85.07129;95378.31;;;;
2021/09/26 03:42:18;;;;;;;8.199999;6.35;;;;;;;15.33;85.07129;95378.31;;;;
2021/09/26 03:43:19;;;;;;;8.199999;6.35;;;;;;;15.33;85.07129;95378.31;;;;
2021/09/26 03:44:20;;;;;;;8.199999;6.35;;;;;;;15.33;85.07129;95378.31;;;;
2021/09/26 03:45:20;;;;;;;8.199999;6.35;;;;;;;15.33;85.07129;95378.31;;;;
2021/09/26 03:46:21;;;;;;;8.199999;6.35;;;;;;;15.33;85.07129;95378.31;;;;
2021/09/26 03:47:21;;;;;;;8.199999;6.35;;;;;;;15.33;85.07129;95378.31;;;;
2021/09/26 03:48:22;;;;;;;8.199999;6.35;;;;;;;15.33;85.07129;95378.31;;;;
2021/09/26 03:49:24;;;;;;;8.199999;6.35;;;;;;;15.33;85.07129;95378.31;;;;
2021/09/26 03:50:24;;;;;;;8.199999;6.35;;;;;;;15.33;85.07129;95378.31;;;;
2021/09/26 03:51:25;;;;;;;8.549999;6.050001;;;;;;;15.24;85.35742;95367.08;;;;
2021/09/26 03:52:26;;;;;;;8.549999;6.050001;;;;;;;15.24;85.35742;95367.08;;;;
2021/09/26 03:53:27;;;;;;;8.549999;6.050001;;;;;;;15.24;85.35742;95367.08;;;;
2021/09/26 03:54:27;;;;;;;8.549999;6.050001;;;;;;;15.24;85.35742;95367.08;;;;
2021/09/26 03:55:28;;;;;;;8.549999;6.050001;;;;;;;15.24;85.35742;95367.08;;;;
2021/09/26 03:56:29;;;;;;;8.549999;6.050001;;;;;;;15.24;85.35742;95367.08;;;;
2021/09/26 03:57:29;;;;;;;8.549999;6.050001;;;;;;;15.24;85.35742;95367.08;;;;
2021/09/26 03:58:30;;;;;;;8.549999;6.050001;;;;;;;15.24;85.35742;95367.08;;;;
2021/09/26 03:59:30;;;;;;;8.549999;6.050001;;;;;;;15.24;85.35742;95367.08;;;;
2021/09/26 04:00:31;;;;;;;8.549999;6.050001;;;;;;;15.24;85.35742;95367.08;;;;
2021/09/26 04:01:32;;;;;;;8.549999;6.050001;;;;;;;15.24;85.35742;95367.08;;;;
2021/09/26 04:02:33;;;;;;;8.700001;6.5;;;;;;;15.18;85.45215;95365.01;;;;
2021/09/26 04:03:33;;;;;;;8.700001;6.5;;;;;;;15.18;85.45215;95365.01;;;;
2021/09/26 04:04:34;;;;;;;8.700001;6.5;;;;;;;15.18;85.45215;95365.01;;;;
2021/09/26 04:05:34;;;;;;;8.700001;6.5;;;;;;;15.18;85.45215;95365.01;;;;
2021/09/26 04:06:35;;;;;;;8.700001;6.5;;;;;;;15.18;85.45215;95365.01;;;;
2021/09/26 04:07:35;;;;;;;8.700001;6.5;;;;;;;15.18;85.45215;95365.01;;;;
2021/09/26 04:08:36;;;;;;;8.700001;6.5;;;;;;;15.18;85.45215;95365.01;;;;
2021/09/26 04:09:37;;;;;;;8.700001;6.5;;;;;;;15.18;85.45215;95365.01;;;;
2021/09/26 04:10:37;;;;;;;8.700001;6.5;;;;;;;15.18;85.45215;95365.01;;;;
2021/09/26 04:11:38;;;;;;;8.700001;6.5;;;;;;;15.18;85.45215;95365.01;;;;
2021/09/26 04:12:40;;;;;;;7.45;6.400001;;;;;;;15.05;85.63477;95354.47;;;;
2021/09/26 04:13:41;;;;;;;7.45;6.400001;;;;;;;15.05;85.63477;95354.47;;;;
2021/09/26 04:14:41;;;;;;;7.45;6.400001;;;;;;;15.05;85.63477;95354.47;;;;
2021/09/26 04:15:42;;;;;;;7.45;6.400001;;;;;;;15.05;85.63477;95354.47;;;;
2021/09/26 04:16:42;;;;;;;7.45;6.400001;;;;;;;15.05;85.63477;95354.47;;;;
2021/09/26 04:17:43;;;;;;;7.45;6.400001;;;;;;;15.05;85.63477;95354.47;;;;
2021/09/26 04:18:43;;;;;;;7.45;6.400001;;;;;;;15.05;85.63477;95354.47;;;;
2021/09/26 04:19:44;;;;;;;7.45;6.400001;;;;;;;15.05;85.63477;95354.47;;;;
2021/09/26 04:20:44;;;;;;;7.45;6.400001;;;;;;;15.05;85.63477;95354.47;;;;
2021/09/26 04:21:45;;;;;;;7.45;6.400001;;;;;;;15.05;85.63477;95354.47;;;;
2021/09/26 04:22:46;;;;;;;7.45;6.400001;;;;;;;15.05;85.63477;95354.47;;;;
2021/09/26 04:23:46;;;;;;;6.849999;6;;;;;;;14.84;86.17285;95354.58;;;;
2021/09/26 04:24:48;;;;;;;6.849999;6;;;;;;;14.84;86.17285;95354.58;;;;
2021/09/26 04:25:49;;;;;;;6.849999;6;;;;;;;14.84;86.17285;95354.58;;;;
2021/09/26 04:26:49;;;;;;;6.849999;6;;;;;;;14.84;86.17285;95354.58;;;;
2021/09/26 04:27:56;;;;;;;6.849999;6;;;;;;;14.84;86.17285;95354.58;;;;
2021/09/26 04:28:57;;;;;;;6.849999;6;;;;;;;14.84;86.17285;95354.58;;;;
2021/09/26 04:29:57;;;;;;;6.849999;6;;;;;;;14.84;86.17285;95354.58;;;;
2021/09/26 04:30:58;;;;;;;6.849999;6;;;;;;;14.84;86.17285;95354.58;;;;
2021/09/26 04:31:58;;;;;;;6.849999;6;;;;;;;14.84;86.17285;95354.58;;;;
2021/09/26 04:32:59;;;;;;;6.849999;6;;;;;;;14.84;86.17285;95354.58;;;;
2021/09/26 04:34:00;;;;;;;7.1;6.3;;;;;;;14.71;86.92383;95340.89;;;;
2021/09/26 04:35:00;;;;;;;7.1;6.3;;;;;;;14.71;86.92383;95340.89;;;;
2021/09/26 04:36:01;;;;;;;7.1;6.3;;;;;;;14.71;86.92383;95340.89;;;;
2021/09/26 04:37:03;;;;;;;7.1;6.3;;;;;;;14.71;86.92383;95340.89;;;;
2021/09/26 04:38:04;;;;;;;7.1;6.3;;;;;;;14.71;86.92383;95340.89;;;;
2021/09/26 04:39:04;;;;;;;7.1;6.3;;;;;;;14.71;86.92383;95340.89;;;;
2021/09/26 04:40:05;;;;;;;7.1;6.3;;;;;;;14.71;86.92383;95340.89;;;;
2021/09/26 04:41:07;;;;;;;7.1;6.3;;;;;;;14.71;86.92383;95340.89;;;;
2021/09/26 04:42:07;;;;;;;7.1;6.3;;;;;;;14.71;86.92383;95340.89;;;;
2021/09/26 04:43:08;;;;;;;7.1;6.3;;;;;;;14.71;86.92383;95340.89;;;;
2021/09/26 04:44:09;;;;;;;7.1;6.3;;;;;;;14.71;86.92383;95340.89;;;;
2021/09/26 04:45:11;;;;;;;7;6.25;;;;;;;14.69;87.21094;95338.56;;;;
2021/09/26 04:46:12;;;;;;;7;6.25;;;;;;;14.69;87.21094;95338.56;;;;
2021/09/26 04:47:12;;;;;;;7;6.25;;;;;;;14.69;87.21094;95338.56;;;;
2021/09/26 04:48:13;;;;;;;7;6.25;;;;;;;14.69;87.21094;95338.56;;;;
2021/09/26 04:49:14;;;;;;;7;6.25;;;;;;;14.69;87.21094;95338.56;;;;
2021/09/26 04:50:14;;;;;;;7;6.25;;;;;;;14.69;87.21094;95338.56;;;;
2021/09/26 04:51:15;;;;;;;7;6.25;;;;;;;14.69;87.21094;95338.56;;;;
2021/09/26 04:52:16;;;;;;;7;6.25;;;;;;;14.69;87.21094;95338.56;;;;
2021/09/26 04:53:16;;;;;;;7;6.25;;;;;;;14.69;87.21094;95338.56;;;;
2021/09/26 04:54:17;;;;;;;7;6.25;;;;;;;14.69;87.21094;95338.56;;;;
2021/09/26 04:55:20;;;;;;;7;6.25;;;;;;;14.69;87.21094;95338.56;;;;
2021/09/26 04:56:21;;;;;;;7;6.25;;;;;;;14.69;87.21094;95338.56;;;;
2021/09/26 04:57:21;;;;;;;7;6.25;;;;;;;14.69;87.21094;95338.56;;;;
2021/09/26 04:58:22;;;;;;;7;6.25;;;;;;;14.69;87.21094;95338.56;;;;
2021/09/26 04:59:24;;;;;;;7;6.25;;;;;;;14.69;87.21094;95338.56;;;;
2021/09/26 05:00:24;;;;;;;7;6.25;;;;;;;14.69;87.21094;95338.56;;;;
2021/09/26 05:01:25;;;;;;;7;6.25;;;;;;;14.69;87.21094;95338.56;;;;
2021/09/26 05:02:26;;;;;;;7;6.25;;;;;;;14.69;87.21094;95338.56;;;;
2021/09/26 05:03:26;;;;;;;7;6.25;;;;;;;14.69;87.21094;95338.56;;;;
2021/09/26 05:04:27;;;;;;;7;6.25;;;;;;;14.69;87.21094;95338.56;;;;
2021/09/26 05:05:28;;;;;;;7;6.25;;;;;;;14.69;87.21094;95338.56;;;;
2021/09/26 05:06:28;;;;;;;11.45;6.349999;;;;;;;14.51;88.01367;95318.05;;;;
2021/09/26 05:07:29;;;;;;;11.45;6.349999;;;;;;;14.51;88.01367;95318.05;;;;
2021/09/26 05:08:29;;;;;;;11.45;6.349999;;;;;;;14.51;88.01367;95318.05;;;;
2021/09/26 05:09:30;;;;;;;11.45;6.349999;;;;;;;14.51;88.01367;95318.05;;;;
2021/09/26 05:10:31;;;;;;;11.45;6.349999;;;;;;;14.51;88.01367;95318.05;;;;
2021/09/26 05:11:31;;;;;;;11.45;6.349999;;;;;;;14.51;88.01367;95318.05;;;;
2021/09/26 05:12:32;;;;;;;11.45;6.349999;;;;;;;14.51;88.01367;95318.05;;;;
2021/09/26 05:13:33;;;;;;;11.45;6.349999;;;;;;;14.51;88.01367;95318.05;;;;
2021/09/26 05:14:33;;;;;;;11.45;6.349999;;;;;;;14.51;88.01367;95318.05;;;;
2021/09/26 05:15:34;;;;;;;11.45;6.349999;;;;;;;14.51;88.01367;95318.05;;;;
2021/09/26 05:16:35;;;;;;;7.1;6.3;;;;;;;14.43;88.3291;95328.13;;;;
2021/09/26 05:17:35;;;;;;;7.1;6.3;;;;;;;14.43;88.3291;95328.13;;;;
2021/09/26 05:18:37;;;;;;;7.1;6.3;;;;;;;14.43;88.3291;95328.13;;;;
2021/09/26 05:19:38;;;;;;;7.1;6.3;;;;;;;14.43;88.3291;95328.13;;;;
2021/09/26 05:20:38;;;;;;;7.1;6.3;;;;;;;14.43;88.3291;95328.13;;;;
2021/09/26 05:21:39;;;;;;;7.1;6.3;;;;;;;14.43;88.3291;95328.13;;;;
2021/09/26 05:22:39;;;;;;;7.1;6.3;;;;;;;14.43;88.3291;95328.13;;;;
2021/09/26 05:23:40;;;;;;;7.1;6.3;;;;;;;14.43;88.3291;95328.13;;;;
2021/09/26 05:24:41;;;;;;;7.1;6.3;;;;;;;14.43;88.3291;95328.13;;;;
2021/09/26 05:25:41;;;;;;;7.1;6.3;;;;;;;14.43;88.3291;95328.13;;;;
2021/09/26 05:26:42;;;;;;;7.1;6.3;;;;;;;14.43;88.3291;95328.13;;;;
2021/09/26 05:27:42;;;;;;;7.1;5.9;;;;;;;14.6;88.48242;95343.78;;;;
2021/09/26 05:28:43;;;;;;;7.1;5.9;;;;;;;14.6;88.48242;95343.78;;;;
2021/09/26 05:29:43;;;;;;;7.1;5.9;;;;;;;14.6;88.48242;95343.78;;;;
2021/09/26 05:30:44;;;;;;;7.1;5.9;;;;;;;14.6;88.48242;95343.78;;;;
2021/09/26 05:31:45;;;;;;;7.1;5.9;;;;;;;14.6;88.48242;95343.78;;;;
2021/09/26 05:32:45;;;;;;;7.1;5.9;;;;;;;14.6;88.48242;95343.78;;;;
2021/09/26 05:33:46;;;;;;;7.1;5.9;;;;;;;14.6;88.48242;95343.78;;;;
2021/09/26 05:34:46;;;;;;;7.1;5.9;;;;;;;14.6;88.48242;95343.78;;;;
2021/09/26 05:35:48;;;;;;;7.1;5.9;;;;;;;14.6;88.48242;95343.78;;;;
2021/09/26 05:36:49;;;;;;;7.1;5.9;;;;;;;14.6;88.48242;95343.78;;;;
2021/09/26 05:37:49;;;;;;;7.1;5.9;;;;;;;14.6;88.48242;95343.78;;;;
2021/09/26 05:38:50;;;;;;;6;5.4;;;;;;;14.97;88.20117;95340.1;;;;
2021/09/26 05:39:50;;;;;;;6;5.4;;;;;;;14.97;88.20117;95340.1;;;;
2021/09/26 05:40:51;;;;;;;6;5.4;;;;;;;14.97;88.20117;95340.1;;;;